sensor_id;sensor_type;location;lat;lon;timestamp;temperature;humidity
61201;DHT22;47065;52.898;6.992;2022-12-05T00:01:30;4.40;99.90
61201;DHT22;47065;52.898;6.992;2022-12-05T00:03:58;4.30;99.90
61201;DHT22;47065;52.898;6.992;2022-12-05T00:06:26;4.40;99.90
61201;DHT22;47065;52.898;6.992;2022-12-05T00:08:52;4.40;99.90
61201;DHT22;47065;52.898;6.992;2022-12-05T00:11:20;4.40;99.90
61201;DHT22;47065;52.898;6.992;2022-12-05T00:13:46;4.40;99.90
61201;DHT22;47065;52.898;6.992;2022-12-05T00:16:15;4.40;99.90
61201;DHT22;47065;52.898;6.992;2022-12-05T00:18:41;4.40;99.90
61201;DHT22;47065;52.898;6.992;2022-12-05T00:21:11;4.40;99.90
61201;DHT22;47065;52.898;6.992;2022-12-05T00:23:40;4.40;99.90
61201;DHT22;47065;52.898;6.992;2022-12-05T00:26:06;4.30;99.90
61201;DHT22;47065;52.898;6.992;2022-12-05T00:28:33;4.40;99.90
61201;DHT22;47065;52.898;6.992;2022-12-05T00:31:07;4.40;99.90
61201;DHT22;47065;52.898;6.992;2022-12-05T00:33:33;4.40;99.90
61201;DHT22;47065;52.898;6.992;2022-12-05T00:36:11;4.40;99.90
61201;DHT22;47065;52.898;6.992;2022-12-05T00:38:37;4.40;99.90
61201;DHT22;47065;52.898;6.992;2022-12-05T00:41:24;4.40;99.90
61201;DHT22;47065;52.898;6.992;2022-12-05T00:43:50;4.40;99.90
61201;DHT22;47065;52.898;6.992;2022-12-05T00:46:22;4.40;99.90
61201;DHT22;47065;52.898;6.992;2022-12-05T00:48:49;4.40;99.90
61201;DHT22;47065;52.898;6.992;2022-12-05T00:51:19;4.50;99.90
61201;DHT22;47065;52.898;6.992;2022-12-05T00:53:45;4.50;99.90
61201;DHT22;47065;52.898;6.992;2022-12-05T00:56:15;4.40;99.90
61201;DHT22;47065;52.898;6.992;2022-12-05T00:58:42;4.50;99.90
61201;DHT22;47065;52.898;6.992;2022-12-05T01:03:36;4.50;99.90
61201;DHT22;47065;52.898;6.992;2022-12-05T01:06:02;4.50;99.90
61201;DHT22;47065;52.898;6.992;2022-12-05T01:08:28;4.50;99.90
61201;DHT22;47065;52.898;6.992;2022-12-05T01:10:54;4.50;99.90
61201;DHT22;47065;52.898;6.992;2022-12-05T01:13:20;4.60;99.90
61201;DHT22;47065;52.898;6.992;2022-12-05T01:15:46;4.60;99.90
61201;DHT22;47065;52.898;6.992;2022-12-05T01:18:12;4.60;99.90
61201;DHT22;47065;52.898;6.992;2022-12-05T01:20:42;4.60;99.90
61201;DHT22;47065;52.898;6.992;2022-12-05T01:23:07;4.60;99.90
61201;DHT22;47065;52.898;6.992;2022-12-05T01:25:34;4.60;99.90
61201;DHT22;47065;52.898;6.992;2022-12-05T01:27:59;4.60;99.90
61201;DHT22;47065;52.898;6.992;2022-12-05T01:30:25;4.60;99.90
61201;DHT22;47065;52.898;6.992;2022-12-05T01:32:51;4.60;99.90
61201;DHT22;47065;52.898;6.992;2022-12-05T01:35:17;4.60;99.90
61201;DHT22;47065;52.898;6.992;2022-12-05T01:37:43;4.70;99.90
61201;DHT22;47065;52.898;6.992;2022-12-05T01:40:08;4.70;99.90
61201;DHT22;47065;52.898;6.992;2022-12-05T01:42:34;4.60;99.90
61201;DHT22;47065;52.898;6.992;2022-12-05T01:45:06;4.70;99.90
61201;DHT22;47065;52.898;6.992;2022-12-05T01:47:34;4.70;99.90
61201;DHT22;47065;52.898;6.992;2022-12-05T01:50:00;4.60;99.90
61201;DHT22;47065;52.898;6.992;2022-12-05T01:52:28;4.70;99.90
61201;DHT22;47065;52.898;6.992;2022-12-05T01:55:00;4.70;99.90
61201;DHT22;47065;52.898;6.992;2022-12-05T01:57:27;4.70;99.90
61201;DHT22;47065;52.898;6.992;2022-12-05T01:59:57;4.70;99.90
61201;DHT22;47065;52.898;6.992;2022-12-05T02:02:24;4.70;99.90
61201;DHT22;47065;52.898;6.992;2022-12-05T02:07:26;4.80;99.90
61201;DHT22;47065;52.898;6.992;2022-12-05T02:09:51;4.80;99.90
61201;DHT22;47065;52.898;6.992;2022-12-05T02:12:18;4.80;99.90
61201;DHT22;47065;52.898;6.992;2022-12-05T02:23:16;4.90;99.90
61201;DHT22;47065;52.898;6.992;2022-12-05T02:31:03;4.90;99.90
61201;DHT22;47065;52.898;6.992;2022-12-05T02:33:49;4.90;99.90
61201;DHT22;47065;52.898;6.992;2022-12-05T02:39:45;4.90;99.90
61201;DHT22;47065;52.898;6.992;2022-12-05T02:45:08;4.90;99.90
61201;DHT22;47065;52.898;6.992;2022-12-05T02:47:43;4.90;99.90
61201;DHT22;47065;52.898;6.992;2022-12-05T02:50:12;4.90;99.90
61201;DHT22;47065;52.898;6.992;2022-12-05T02:52:40;4.90;99.90
61201;DHT22;47065;52.898;6.992;2022-12-05T02:55:07;4.90;99.90
61201;DHT22;47065;52.898;6.992;2022-12-05T02:57:35;4.90;99.90
61201;DHT22;47065;52.898;6.992;2022-12-05T03:00:02;4.90;99.90
61201;DHT22;47065;52.898;6.992;2022-12-05T03:02:32;4.90;99.90
61201;DHT22;47065;52.898;6.992;2022-12-05T03:05:18;4.90;99.90
61201;DHT22;47065;52.898;6.992;2022-12-05T03:07:48;4.90;99.90
61201;DHT22;47065;52.898;6.992;2022-12-05T03:10:17;4.90;99.90
61201;DHT22;47065;52.898;6.992;2022-12-05T03:12:49;4.90;99.90
61201;DHT22;47065;52.898;6.992;2022-12-05T03:15:25;5.00;99.90
61201;DHT22;47065;52.898;6.992;2022-12-05T03:17:56;5.00;99.90
61201;DHT22;47065;52.898;6.992;2022-12-05T03:20:28;5.00;99.90
61201;DHT22;47065;52.898;6.992;2022-12-05T03:23:07;5.00;99.90
61201;DHT22;47065;52.898;6.992;2022-12-05T03:25:40;5.00;99.90
61201;DHT22;47065;52.898;6.992;2022-12-05T03:28:20;5.00;99.90
61201;DHT22;47065;52.898;6.992;2022-12-05T03:30:52;5.00;99.90
61201;DHT22;47065;52.898;6.992;2022-12-05T03:33:22;5.00;99.90
61201;DHT22;47065;52.898;6.992;2022-12-05T03:36:11;5.00;99.90
61201;DHT22;47065;52.898;6.992;2022-12-05T03:38:49;5.00;99.90
61201;DHT22;47065;52.898;6.992;2022-12-05T03:41:27;5.00;99.90
61201;DHT22;47065;52.898;6.992;2022-12-05T03:44:11;5.00;99.90
61201;DHT22;47065;52.898;6.992;2022-12-05T03:46:42;5.00;99.90
61201;DHT22;47065;52.898;6.992;2022-12-05T03:49:33;5.00;99.90
61201;DHT22;47065;52.898;6.992;2022-12-05T03:52:27;4.90;99.90
61201;DHT22;47065;52.898;6.992;2022-12-05T03:55:00;4.90;99.90
61201;DHT22;47065;52.898;6.992;2022-12-05T04:00:02;4.90;99.90
61201;DHT22;47065;52.898;6.992;2022-12-05T04:02:38;4.90;99.90
61201;DHT22;47065;52.898;6.992;2022-12-05T04:05:26;4.90;99.90
61201;DHT22;47065;52.898;6.992;2022-12-05T04:08:11;4.90;99.90
61201;DHT22;47065;52.898;6.992;2022-12-05T04:10:39;4.90;99.90
61201;DHT22;47065;52.898;6.992;2022-12-05T04:13:26;4.90;99.90
61201;DHT22;47065;52.898;6.992;2022-12-05T04:15:57;5.00;99.90
61201;DHT22;47065;52.898;6.992;2022-12-05T04:18:49;5.00;99.90
61201;DHT22;47065;52.898;6.992;2022-12-05T04:21:17;5.00;99.90
61201;DHT22;47065;52.898;6.992;2022-12-05T04:24:06;5.00;99.90
61201;DHT22;47065;52.898;6.992;2022-12-05T04:27:06;5.00;99.90
61201;DHT22;47065;52.898;6.992;2022-12-05T04:29:41;5.00;99.90
61201;DHT22;47065;52.898;6.992;2022-12-05T04:32:10;5.00;99.90
61201;DHT22;47065;52.898;6.992;2022-12-05T04:34:37;5.00;99.90
61201;DHT22;47065;52.898;6.992;2022-12-05T04:37:12;5.00;99.90
61201;DHT22;47065;52.898;6.992;2022-12-05T04:39:47;5.00;99.90
61201;DHT22;47065;52.898;6.992;2022-12-05T04:42:18;5.00;99.90
61201;DHT22;47065;52.898;6.992;2022-12-05T04:45:01;5.00;99.90
61201;DHT22;47065;52.898;6.992;2022-12-05T04:47:32;5.00;99.90
61201;DHT22;47065;52.898;6.992;2022-12-05T04:50:01;5.00;99.90
61201;DHT22;47065;52.898;6.992;2022-12-05T04:52:28;5.00;99.90
61201;DHT22;47065;52.898;6.992;2022-12-05T04:55:02;5.00;99.90
61201;DHT22;47065;52.898;6.992;2022-12-05T04:57:38;5.00;99.90
61201;DHT22;47065;52.898;6.992;2022-12-05T05:00:05;5.00;99.90
61201;DHT22;47065;52.898;6.992;2022-12-05T05:02:36;5.00;99.90
61201;DHT22;47065;52.898;6.992;2022-12-05T05:05:10;5.00;99.90
61201;DHT22;47065;52.898;6.992;2022-12-05T05:07:44;5.00;99.90
61201;DHT22;47065;52.898;6.992;2022-12-05T05:10:13;5.10;99.90
61201;DHT22;47065;52.898;6.992;2022-12-05T05:12:39;5.00;99.90
61201;DHT22;47065;52.898;6.992;2022-12-05T05:15:05;5.00;99.90
61201;DHT22;47065;52.898;6.992;2022-12-05T05:17:31;5.10;99.90
61201;DHT22;47065;52.898;6.992;2022-12-05T05:19:56;5.00;99.90
61201;DHT22;47065;52.898;6.992;2022-12-05T05:22:42;5.00;99.90
61201;DHT22;47065;52.898;6.992;2022-12-05T05:25:07;5.00;99.90
61201;DHT22;47065;52.898;6.992;2022-12-05T05:27:33;5.10;99.90
61201;DHT22;47065;52.898;6.992;2022-12-05T05:29:58;5.00;99.90
61201;DHT22;47065;52.898;6.992;2022-12-05T05:32:24;5.00;99.90
61201;DHT22;47065;52.898;6.992;2022-12-05T05:34:49;5.00;99.90
61201;DHT22;47065;52.898;6.992;2022-12-05T05:37:15;5.10;99.90
61201;DHT22;47065;52.898;6.992;2022-12-05T05:39:41;5.10;99.90
61201;DHT22;47065;52.898;6.992;2022-12-05T05:42:06;5.10;99.90
61201;DHT22;47065;52.898;6.992;2022-12-05T05:44:32;5.10;99.90
61201;DHT22;47065;52.898;6.992;2022-12-05T05:46:57;5.10;99.90
61201;DHT22;47065;52.898;6.992;2022-12-05T05:49:23;5.10;99.90
61201;DHT22;47065;52.898;6.992;2022-12-05T05:51:49;5.10;99.90
61201;DHT22;47065;52.898;6.992;2022-12-05T05:54:14;5.10;99.90
61201;DHT22;47065;52.898;6.992;2022-12-05T05:56:40;5.10;99.90
61201;DHT22;47065;52.898;6.992;2022-12-05T05:59:05;5.10;99.90
61201;DHT22;47065;52.898;6.992;2022-12-05T06:01:31;5.10;99.90
61201;DHT22;47065;52.898;6.992;2022-12-05T06:03:57;5.10;99.90
61201;DHT22;47065;52.898;6.992;2022-12-05T06:06:23;5.10;99.90
61201;DHT22;47065;52.898;6.992;2022-12-05T06:08:49;5.10;99.90
61201;DHT22;47065;52.898;6.992;2022-12-05T06:11:21;5.00;99.90
61201;DHT22;47065;52.898;6.992;2022-12-05T06:13:46;5.00;99.90
61201;DHT22;47065;52.898;6.992;2022-12-05T06:16:14;5.00;99.90
61201;DHT22;47065;52.898;6.992;2022-12-05T06:18:40;5.00;99.90
61201;DHT22;47065;52.898;6.992;2022-12-05T06:21:06;5.00;99.90
61201;DHT22;47065;52.898;6.992;2022-12-05T06:23:34;5.00;99.90
61201;DHT22;47065;52.898;6.992;2022-12-05T06:26:01;5.00;99.90
61201;DHT22;47065;52.898;6.992;2022-12-05T06:28:27;5.00;99.90
61201;DHT22;47065;52.898;6.992;2022-12-05T06:30:52;5.00;99.90
61201;DHT22;47065;52.898;6.992;2022-12-05T06:33:19;5.00;99.90
61201;DHT22;47065;52.898;6.992;2022-12-05T06:35:45;5.00;99.90
61201;DHT22;47065;52.898;6.992;2022-12-05T06:38:11;5.00;99.90
61201;DHT22;47065;52.898;6.992;2022-12-05T06:40:41;5.00;99.90
61201;DHT22;47065;52.898;6.992;2022-12-05T06:43:08;5.00;99.90
61201;DHT22;47065;52.898;6.992;2022-12-05T06:45:36;5.10;99.90
61201;DHT22;47065;52.898;6.992;2022-12-05T06:48:01;5.00;99.90
61201;DHT22;47065;52.898;6.992;2022-12-05T06:50:27;5.10;99.90
61201;DHT22;47065;52.898;6.992;2022-12-05T06:52:53;5.00;99.90
61201;DHT22;47065;52.898;6.992;2022-12-05T06:55:18;5.00;99.90
61201;DHT22;47065;52.898;6.992;2022-12-05T06:57:44;5.10;99.90
61201;DHT22;47065;52.898;6.992;2022-12-05T07:00:10;5.10;99.90
61201;DHT22;47065;52.898;6.992;2022-12-05T07:02:54;5.00;99.90
61201;DHT22;47065;52.898;6.992;2022-12-05T07:05:20;5.00;99.90
61201;DHT22;47065;52.898;6.992;2022-12-05T07:07:46;4.90;99.90
61201;DHT22;47065;52.898;6.992;2022-12-05T07:10:11;4.90;99.90
61201;DHT22;47065;52.898;6.992;2022-12-05T07:12:37;4.80;99.90
61201;DHT22;47065;52.898;6.992;2022-12-05T07:15:03;4.70;99.90
61201;DHT22;47065;52.898;6.992;2022-12-05T07:17:29;4.70;99.90
61201;DHT22;47065;52.898;6.992;2022-12-05T07:19:55;4.70;99.90
61201;DHT22;47065;52.898;6.992;2022-12-05T07:22:21;4.70;99.90
61201;DHT22;47065;52.898;6.992;2022-12-05T07:24:49;4.70;99.90
61201;DHT22;47065;52.898;6.992;2022-12-05T07:27:15;4.70;99.90
61201;DHT22;47065;52.898;6.992;2022-12-05T07:29:41;4.80;99.90
61201;DHT22;47065;52.898;6.992;2022-12-05T07:32:07;4.80;99.90
61201;DHT22;47065;52.898;6.992;2022-12-05T07:34:32;4.90;99.90
61201;DHT22;47065;52.898;6.992;2022-12-05T07:36:59;4.90;99.90
61201;DHT22;47065;52.898;6.992;2022-12-05T07:39:24;4.90;99.90
61201;DHT22;47065;52.898;6.992;2022-12-05T07:41:50;4.90;99.90
61201;DHT22;47065;52.898;6.992;2022-12-05T07:44:16;5.00;99.90
61201;DHT22;47065;52.898;6.992;2022-12-05T07:46:41;5.00;99.90
61201;DHT22;47065;52.898;6.992;2022-12-05T07:49:07;5.00;99.90
61201;DHT22;47065;52.898;6.992;2022-12-05T07:51:33;5.00;99.90
61201;DHT22;47065;52.898;6.992;2022-12-05T07:53:59;5.00;99.90
61201;DHT22;47065;52.898;6.992;2022-12-05T07:56:26;5.00;99.90
61201;DHT22;47065;52.898;6.992;2022-12-05T07:58:52;5.10;99.90
61201;DHT22;47065;52.898;6.992;2022-12-05T08:01:24;5.10;99.90
61201;DHT22;47065;52.898;6.992;2022-12-05T08:03:53;5.10;99.90
61201;DHT22;47065;52.898;6.992;2022-12-05T08:06:21;5.20;99.90
61201;DHT22;47065;52.898;6.992;2022-12-05T08:08:47;5.20;99.90
61201;DHT22;47065;52.898;6.992;2022-12-05T08:11:16;5.20;99.90
61201;DHT22;47065;52.898;6.992;2022-12-05T08:13:43;5.20;99.90
61201;DHT22;47065;52.898;6.992;2022-12-05T08:16:11;5.20;99.90
61201;DHT22;47065;52.898;6.992;2022-12-05T08:18:37;5.20;99.90
61201;DHT22;47065;52.898;6.992;2022-12-05T08:21:05;5.20;99.90
61201;DHT22;47065;52.898;6.992;2022-12-05T08:23:31;5.20;99.90
61201;DHT22;47065;52.898;6.992;2022-12-05T08:26:04;5.20;99.90
61201;DHT22;47065;52.898;6.992;2022-12-05T08:28:31;5.20;99.90
61201;DHT22;47065;52.898;6.992;2022-12-05T08:31:13;5.20;99.90
61201;DHT22;47065;52.898;6.992;2022-12-05T08:33:39;5.20;99.90
61201;DHT22;47065;52.898;6.992;2022-12-05T08:36:11;5.20;99.90
61201;DHT22;47065;52.898;6.992;2022-12-05T08:38:38;5.30;99.90
61201;DHT22;47065;52.898;6.992;2022-12-05T08:41:06;5.30;99.90
61201;DHT22;47065;52.898;6.992;2022-12-05T08:43:32;5.20;99.90
61201;DHT22;47065;52.898;6.992;2022-12-05T08:45:59;5.20;99.90
61201;DHT22;47065;52.898;6.992;2022-12-05T08:48:26;5.20;99.90
61201;DHT22;47065;52.898;6.992;2022-12-05T08:50:52;5.20;99.90
61201;DHT22;47065;52.898;6.992;2022-12-05T08:53:18;5.20;99.90
61201;DHT22;47065;52.898;6.992;2022-12-05T08:55:44;5.20;99.90
61201;DHT22;47065;52.898;6.992;2022-12-05T08:58:11;5.30;99.90
61201;DHT22;47065;52.898;6.992;2022-12-05T09:00:37;5.30;99.90
61201;DHT22;47065;52.898;6.992;2022-12-05T09:03:03;5.30;99.90
61201;DHT22;47065;52.898;6.992;2022-12-05T09:05:29;5.30;99.90
61201;DHT22;47065;52.898;6.992;2022-12-05T09:07:55;5.20;99.90
61201;DHT22;47065;52.898;6.992;2022-12-05T09:10:20;5.20;99.90
61201;DHT22;47065;52.898;6.992;2022-12-05T09:12:46;5.30;99.90
61201;DHT22;47065;52.898;6.992;2022-12-05T09:15:12;5.20;99.90
61201;DHT22;47065;52.898;6.992;2022-12-05T09:17:38;5.30;99.90
61201;DHT22;47065;52.898;6.992;2022-12-05T09:20:07;5.20;99.90
61201;DHT22;47065;52.898;6.992;2022-12-05T09:22:34;5.20;99.90
61201;DHT22;47065;52.898;6.992;2022-12-05T09:24:59;5.20;99.90
61201;DHT22;47065;52.898;6.992;2022-12-05T09:27:27;5.20;99.90
61201;DHT22;47065;52.898;6.992;2022-12-05T09:29:53;5.20;99.90
61201;DHT22;47065;52.898;6.992;2022-12-05T09:32:19;5.20;99.90
61201;DHT22;47065;52.898;6.992;2022-12-05T09:34:45;5.20;99.90
61201;DHT22;47065;52.898;6.992;2022-12-05T09:37:10;5.20;99.90
61201;DHT22;47065;52.898;6.992;2022-12-05T09:39:36;5.20;99.90
61201;DHT22;47065;52.898;6.992;2022-12-05T09:42:12;5.20;99.90
61201;DHT22;47065;52.898;6.992;2022-12-05T09:52:35;5.20;99.90
61201;DHT22;47065;52.898;6.992;2022-12-05T09:55:12;5.20;99.90
61201;DHT22;47065;52.898;6.992;2022-12-05T09:57:52;5.20;99.90
61201;DHT22;47065;52.898;6.992;2022-12-05T10:00:18;5.10;99.90
61201;DHT22;47065;52.898;6.992;2022-12-05T10:03:18;5.10;99.90
61201;DHT22;47065;52.898;6.992;2022-12-05T10:08:25;5.20;99.90
61201;DHT22;47065;52.898;6.992;2022-12-05T10:11:00;5.20;99.90
61201;DHT22;47065;52.898;6.992;2022-12-05T10:13:47;5.20;99.90
61201;DHT22;47065;52.898;6.992;2022-12-05T10:16:23;5.20;99.90
61201;DHT22;47065;52.898;6.992;2022-12-05T10:19:05;5.20;99.90
61201;DHT22;47065;52.898;6.992;2022-12-05T10:21:40;5.20;99.90
61201;DHT22;47065;52.898;6.992;2022-12-05T10:24:14;5.20;99.90
61201;DHT22;47065;52.898;6.992;2022-12-05T10:26:58;5.20;99.90
61201;DHT22;47065;52.898;6.992;2022-12-05T10:29:34;5.20;99.90
61201;DHT22;47065;52.898;6.992;2022-12-05T10:32:13;5.20;99.90
61201;DHT22;47065;52.898;6.992;2022-12-05T10:34:42;5.20;99.90
61201;DHT22;47065;52.898;6.992;2022-12-05T10:37:13;5.20;99.90
61201;DHT22;47065;52.898;6.992;2022-12-05T10:39:39;5.20;99.90
61201;DHT22;47065;52.898;6.992;2022-12-05T10:42:10;5.20;99.90
61201;DHT22;47065;52.898;6.992;2022-12-05T10:44:36;5.20;99.90
61201;DHT22;47065;52.898;6.992;2022-12-05T10:47:02;5.20;99.90
61201;DHT22;47065;52.898;6.992;2022-12-05T10:49:28;5.20;99.90
61201;DHT22;47065;52.898;6.992;2022-12-05T10:51:54;5.20;99.90
61201;DHT22;47065;52.898;6.992;2022-12-05T10:54:23;5.20;99.90
61201;DHT22;47065;52.898;6.992;2022-12-05T10:56:52;5.20;99.90
61201;DHT22;47065;52.898;6.992;2022-12-05T10:59:23;5.20;99.90
61201;DHT22;47065;52.898;6.992;2022-12-05T11:01:53;5.20;99.90
61201;DHT22;47065;52.898;6.992;2022-12-05T11:04:31;5.20;99.90
61201;DHT22;47065;52.898;6.992;2022-12-05T11:07:05;5.20;99.90
61201;DHT22;47065;52.898;6.992;2022-12-05T11:09:33;5.10;99.90
61201;DHT22;47065;52.898;6.992;2022-12-05T11:12:21;5.20;99.90
61201;DHT22;47065;52.898;6.992;2022-12-05T11:14:59;5.20;99.90
61201;DHT22;47065;52.898;6.992;2022-12-05T11:17:30;5.20;99.90
61201;DHT22;47065;52.898;6.992;2022-12-05T11:19:57;5.20;99.90
61201;DHT22;47065;52.898;6.992;2022-12-05T11:22:35;5.20;99.90
61201;DHT22;47065;52.898;6.992;2022-12-05T11:25:35;5.20;99.90
61201;DHT22;47065;52.898;6.992;2022-12-05T11:33:26;5.20;99.90
61201;DHT22;47065;52.898;6.992;2022-12-05T11:35:53;5.20;99.90
61201;DHT22;47065;52.898;6.992;2022-12-05T11:38:26;5.20;99.90
61201;DHT22;47065;52.898;6.992;2022-12-05T11:40:58;5.20;99.90
61201;DHT22;47065;52.898;6.992;2022-12-05T11:46:40;5.30;99.90
61201;DHT22;47065;52.898;6.992;2022-12-05T12:00:18;5.30;99.90
61201;DHT22;47065;52.898;6.992;2022-12-05T12:08:42;5.30;99.90
61201;DHT22;47065;52.898;6.992;2022-12-05T12:11:27;5.30;99.90
61201;DHT22;47065;52.898;6.992;2022-12-05T12:22:57;5.30;99.90
61201;DHT22;47065;52.898;6.992;2022-12-05T12:28:44;5.30;99.90
61201;DHT22;47065;52.898;6.992;2022-12-05T12:37:01;5.30;99.90
61201;DHT22;47065;52.898;6.992;2022-12-05T12:39:51;5.30;99.90
61201;DHT22;47065;52.898;6.992;2022-12-05T12:42:26;5.30;99.90
61201;DHT22;47065;52.898;6.992;2022-12-05T12:48:05;5.30;99.90
61201;DHT22;47065;52.898;6.992;2022-12-05T12:50:38;5.30;99.90
61201;DHT22;47065;52.898;6.992;2022-12-05T12:56:15;5.30;99.90
61201;DHT22;47065;52.898;6.992;2022-12-05T12:59:08;5.30;99.90
61201;DHT22;47065;52.898;6.992;2022-12-05T13:04:39;5.30;99.90
61201;DHT22;47065;52.898;6.992;2022-12-05T13:07:24;5.30;99.90
61201;DHT22;47065;52.898;6.992;2022-12-05T13:09:56;5.30;99.90
61201;DHT22;47065;52.898;6.992;2022-12-05T13:12:28;5.30;99.90
61201;DHT22;47065;52.898;6.992;2022-12-05T13:15:09;5.20;99.90
61201;DHT22;47065;52.898;6.992;2022-12-05T13:17:40;5.30;99.90
61201;DHT22;47065;52.898;6.992;2022-12-05T13:20:17;5.20;99.90
61201;DHT22;47065;52.898;6.992;2022-12-05T13:22:45;5.20;99.90
61201;DHT22;47065;52.898;6.992;2022-12-05T13:25:15;5.20;99.90
61201;DHT22;47065;52.898;6.992;2022-12-05T13:27:59;5.20;99.90
61201;DHT22;47065;52.898;6.992;2022-12-05T13:30:25;5.20;99.90
61201;DHT22;47065;52.898;6.992;2022-12-05T13:33:00;5.20;99.90
61201;DHT22;47065;52.898;6.992;2022-12-05T13:35:36;5.30;99.90
61201;DHT22;47065;52.898;6.992;2022-12-05T13:41:12;5.20;99.90
61201;DHT22;47065;52.898;6.992;2022-12-05T13:43:56;5.20;99.90
61201;DHT22;47065;52.898;6.992;2022-12-05T13:46:28;5.20;99.90
61201;DHT22;47065;52.898;6.992;2022-12-05T13:49:18;5.20;99.90
61201;DHT22;47065;52.898;6.992;2022-12-05T13:51:44;5.20;99.90
61201;DHT22;47065;52.898;6.992;2022-12-05T13:56:55;5.20;99.90
61201;DHT22;47065;52.898;6.992;2022-12-05T14:15:42;5.20;99.90
61201;DHT22;47065;52.898;6.992;2022-12-05T14:18:15;5.20;99.90
61201;DHT22;47065;52.898;6.992;2022-12-05T14:29:17;5.20;99.90
61201;DHT22;47065;52.898;6.992;2022-12-05T14:34:22;5.20;99.90
61201;DHT22;47065;52.898;6.992;2022-12-05T14:37:02;5.20;99.90
61201;DHT22;47065;52.898;6.992;2022-12-05T14:39:47;5.20;99.90
61201;DHT22;47065;52.898;6.992;2022-12-05T14:42:34;5.20;99.90
61201;DHT22;47065;52.898;6.992;2022-12-05T14:47:56;5.20;99.90
61201;DHT22;47065;52.898;6.992;2022-12-05T14:50:37;5.20;99.90
61201;DHT22;47065;52.898;6.992;2022-12-05T14:58:18;5.20;99.90
61201;DHT22;47065;52.898;6.992;2022-12-05T15:00:56;5.20;99.90
61201;DHT22;47065;52.898;6.992;2022-12-05T15:03:37;5.20;99.90
61201;DHT22;47065;52.898;6.992;2022-12-05T15:06:05;5.10;99.90
61201;DHT22;47065;52.898;6.992;2022-12-05T15:08:46;5.10;99.90
61201;DHT22;47065;52.898;6.992;2022-12-05T15:11:17;5.10;99.90
61201;DHT22;47065;52.898;6.992;2022-12-05T15:14:08;5.10;99.90
61201;DHT22;47065;52.898;6.992;2022-12-05T15:16:38;5.10;99.90
61201;DHT22;47065;52.898;6.992;2022-12-05T15:19:11;5.10;99.90
61201;DHT22;47065;52.898;6.992;2022-12-05T15:21:47;5.10;99.90
61201;DHT22;47065;52.898;6.992;2022-12-05T15:24:16;5.10;99.90
61201;DHT22;47065;52.898;6.992;2022-12-05T15:27:05;5.10;99.90
61201;DHT22;47065;52.898;6.992;2022-12-05T15:29:36;5.10;99.90
61201;DHT22;47065;52.898;6.992;2022-12-05T15:32:03;5.10;99.90
61201;DHT22;47065;52.898;6.992;2022-12-05T15:47:41;5.10;99.90
61201;DHT22;47065;52.898;6.992;2022-12-05T15:50:14;5.10;99.90
61201;DHT22;47065;52.898;6.992;2022-12-05T15:52:44;5.00;99.90
61201;DHT22;47065;52.898;6.992;2022-12-05T15:55:18;5.10;99.90
61201;DHT22;47065;52.898;6.992;2022-12-05T15:57:49;5.00;99.90
61201;DHT22;47065;52.898;6.992;2022-12-05T16:00:17;5.00;99.90
61201;DHT22;47065;52.898;6.992;2022-12-05T16:02:48;5.00;99.90
61201;DHT22;47065;52.898;6.992;2022-12-05T16:05:39;5.00;99.90
61201;DHT22;47065;52.898;6.992;2022-12-05T16:08:07;5.00;99.90
61201;DHT22;47065;52.898;6.992;2022-12-05T16:10:33;5.00;99.90
61201;DHT22;47065;52.898;6.992;2022-12-05T16:13:11;5.00;99.90
61201;DHT22;47065;52.898;6.992;2022-12-05T16:15:42;5.00;99.90
61201;DHT22;47065;52.898;6.992;2022-12-05T16:18:23;5.00;99.90
61201;DHT22;47065;52.898;6.992;2022-12-05T16:20:49;5.00;99.90
61201;DHT22;47065;52.898;6.992;2022-12-05T16:23:25;5.00;99.90
61201;DHT22;47065;52.898;6.992;2022-12-05T16:25:52;5.00;99.90
61201;DHT22;47065;52.898;6.992;2022-12-05T16:28:20;5.00;99.90
61201;DHT22;47065;52.898;6.992;2022-12-05T16:31:00;5.00;99.90
61201;DHT22;47065;52.898;6.992;2022-12-05T16:33:29;5.00;99.90
61201;DHT22;47065;52.898;6.992;2022-12-05T16:36:05;5.00;99.90
61201;DHT22;47065;52.898;6.992;2022-12-05T16:38:31;5.00;99.90
61201;DHT22;47065;52.898;6.992;2022-12-05T16:41:02;5.00;99.90
61201;DHT22;47065;52.898;6.992;2022-12-05T16:48:35;5.00;99.90
61201;DHT22;47065;52.898;6.992;2022-12-05T16:53:37;5.00;99.90
61201;DHT22;47065;52.898;6.992;2022-12-05T16:56:05;5.00;99.90
61201;DHT22;47065;52.898;6.992;2022-12-05T16:58:33;5.00;99.90
61201;DHT22;47065;52.898;6.992;2022-12-05T17:01:04;5.00;99.90
61201;DHT22;47065;52.898;6.992;2022-12-05T17:03:30;5.00;99.90
61201;DHT22;47065;52.898;6.992;2022-12-05T17:05:56;5.00;99.90
61201;DHT22;47065;52.898;6.992;2022-12-05T17:08:23;5.00;99.90
61201;DHT22;47065;52.898;6.992;2022-12-05T17:10:50;4.90;99.90
61201;DHT22;47065;52.898;6.992;2022-12-05T17:13:16;4.90;99.90
61201;DHT22;47065;52.898;6.992;2022-12-05T17:15:43;4.90;99.90
61201;DHT22;47065;52.898;6.992;2022-12-05T17:18:14;4.90;99.90
61201;DHT22;47065;52.898;6.992;2022-12-05T17:20:42;4.90;99.90
61201;DHT22;47065;52.898;6.992;2022-12-05T17:23:13;4.90;99.90
61201;DHT22;47065;52.898;6.992;2022-12-05T17:25:42;4.90;99.90
61201;DHT22;47065;52.898;6.992;2022-12-05T17:28:09;4.90;99.90
61201;DHT22;47065;52.898;6.992;2022-12-05T17:30:34;4.90;99.90
61201;DHT22;47065;52.898;6.992;2022-12-05T17:33:02;4.90;99.90
61201;DHT22;47065;52.898;6.992;2022-12-05T17:35:28;4.90;99.90
61201;DHT22;47065;52.898;6.992;2022-12-05T17:37:54;4.90;99.90
61201;DHT22;47065;52.898;6.992;2022-12-05T17:40:21;4.90;99.90
61201;DHT22;47065;52.898;6.992;2022-12-05T17:42:46;4.90;99.90
61201;DHT22;47065;52.898;6.992;2022-12-05T17:45:14;4.90;99.90
61201;DHT22;47065;52.898;6.992;2022-12-05T17:47:40;4.90;99.90
61201;DHT22;47065;52.898;6.992;2022-12-05T17:50:11;4.90;99.90
61201;DHT22;47065;52.898;6.992;2022-12-05T17:52:36;4.90;99.90
61201;DHT22;47065;52.898;6.992;2022-12-05T17:55:02;4.90;99.90
61201;DHT22;47065;52.898;6.992;2022-12-05T17:57:28;4.90;99.90
61201;DHT22;47065;52.898;6.992;2022-12-05T17:59:53;4.90;99.90
61201;DHT22;47065;52.898;6.992;2022-12-05T18:02:19;4.90;99.90
61201;DHT22;47065;52.898;6.992;2022-12-05T18:04:45;4.90;99.90
61201;DHT22;47065;52.898;6.992;2022-12-05T18:07:11;4.90;99.90
61201;DHT22;47065;52.898;6.992;2022-12-05T18:09:36;4.90;99.90
61201;DHT22;47065;52.898;6.992;2022-12-05T18:12:02;4.90;99.90
61201;DHT22;47065;52.898;6.992;2022-12-05T18:14:28;4.90;99.90
61201;DHT22;47065;52.898;6.992;2022-12-05T18:16:54;4.90;99.90
61201;DHT22;47065;52.898;6.992;2022-12-05T18:19:19;4.90;99.90
61201;DHT22;47065;52.898;6.992;2022-12-05T18:21:45;4.90;99.90
61201;DHT22;47065;52.898;6.992;2022-12-05T18:24:11;4.80;99.90
61201;DHT22;47065;52.898;6.992;2022-12-05T18:26:36;4.90;99.90
61201;DHT22;47065;52.898;6.992;2022-12-05T18:29:03;4.90;99.90
61201;DHT22;47065;52.898;6.992;2022-12-05T18:31:28;4.80;99.90
61201;DHT22;47065;52.898;6.992;2022-12-05T18:33:55;4.80;99.90
61201;DHT22;47065;52.898;6.992;2022-12-05T18:36:21;4.90;99.90
61201;DHT22;47065;52.898;6.992;2022-12-05T18:38:54;4.90;99.90